Time;durP1;ratioP1;P1;durP2;ratioP2;P2;SDS_P1;SDS_P2;PMS_P1;PMS_P2;Temp;Humidity;BMP_temperature;BMP_pressure;BME280_temperature;BME280_humidity;BME280_pressure;Samples;Min_cycle;Max_cycle;Signal;HPM_P1;HPM_P2
2023/03/10 00:01:31;;;;;;;10.10;2.30;;;11.10;99.90;;;11.00;91.00;97622.19;4953405;28;20320;-79
2023/03/10 00:04:00;;;;;;;16.42;3.70;;;11.00;99.90;;;10.86;91.74;97612.13;4944988;28;20293;-78
2023/03/10 00:06:32;;;;;;;13.75;3.28;;;10.90;99.90;;;10.80;92.53;97630.00;4950558;28;20308;-79
2023/03/10 00:09:00;;;;;;;10.63;2.47;;;10.80;99.90;;;10.78;92.72;97642.41;4932782;29;20272;-77
2023/03/10 00:11:27;;;;;;;17.50;3.78;;;10.80;99.90;;;10.93;92.60;97633.91;4951578;28;20253;-78
2023/03/10 00:13:54;;;;;;;19.08;4.35;;;10.90;99.90;;;10.75;93.46;97624.88;4951690;28;20683;-77
2023/03/10 00:16:25;;;;;;;18.08;4.10;;;10.70;99.90;;;10.67;94.06;97629.56;4948379;28;20671;-77
2023/03/10 00:18:53;;;;;;;12.18;3.15;;;10.60;99.90;;;10.69;94.69;97637.44;4947383;28;21483;-78
2023/03/10 00:21:28;;;;;;;15.85;4.25;;;10.60;99.90;;;10.62;95.22;97646.53;4950488;28;20233;-82
2023/03/10 00:23:56;;;;;;;17.55;4.88;;;10.60;99.90;;;10.69;95.24;97653.31;4948229;28;20245;-79
2023/03/10 00:26:26;;;;;;;13.10;3.28;;;10.60;99.90;;;10.65;95.36;97646.41;4950846;28;20269;-80
2023/03/10 00:28:54;;;;;;;18.88;4.70;;;10.60;99.90;;;10.61;95.87;97656.22;4952314;28;20237;-79
2023/03/10 00:31:26;;;;;;;23.88;7.97;;;10.60;99.90;;;10.68;95.69;97659.50;4950827;28;20233;-79
2023/03/10 00:33:55;;;;;;;22.40;16.48;;;10.60;99.90;;;10.62;95.86;97650.03;4952149;28;20234;-80
2023/03/10 00:36:27;;;;;;;15.48;3.97;;;10.60;99.90;;;10.62;95.65;97654.44;4950309;28;20233;-81
2023/03/10 00:38:55;;;;;;;21.73;5.75;;;10.60;99.90;;;10.64;95.62;97640.25;4951368;28;20300;-79
2023/03/10 00:41:26;;;;;;;41.70;13.38;;;10.60;99.90;;;10.71;95.34;97643.53;4947641;28;20270;-79
2023/03/10 00:43:53;;;;;;;22.25;10.90;;;10.70;99.90;;;10.63;95.21;97632.38;4961443;28;20332;-79
2023/03/10 00:46:20;;;;;;;27.23;9.88;;;10.60;99.90;;;10.68;95.32;97647.16;4951716;28;20273;-80
2023/03/10 00:48:47;;;;;;;21.23;7.63;;;10.60;99.90;;;10.71;94.75;97630.34;4942238;28;20238;-78
2023/03/10 00:51:15;;;;;;;19.77;9.35;;;10.70;99.90;;;10.64;95.03;97631.47;4947471;28;20238;-79
2023/03/10 00:53:43;;;;;;;25.55;9.05;;;10.60;99.90;;;10.59;95.38;97639.56;4949773;28;20241;-80
2023/03/10 00:56:23;;;;;;;16.63;12.02;;;10.50;99.90;;;10.62;95.81;97633.31;4935967;29;20230;-79
2023/03/10 00:58:56;;;;;;;22.50;15.35;;;10.60;99.90;;;10.54;96.31;97629.16;4950485;28;20237;-78
2023/03/10 01:01:38;;;;;;;25.48;10.70;;;10.50;99.90;;;10.62;95.99;97630.66;4946158;28;20265;-79
2023/03/10 01:04:11;;;;;;;16.65;6.85;;;10.50;99.90;;;10.57;96.68;97630.81;4951487;28;20238;-78
2023/03/10 01:06:38;;;;;;;18.05;8.07;;;10.50;99.90;;;10.50;97.15;97624.91;4950408;28;20242;-78
2023/03/10 01:09:06;;;;;;;16.88;4.13;;;10.50;99.90;;;10.47;98.09;97622.38;4944721;28;20257;-78
2023/03/10 01:11:34;;;;;;;14.63;5.22;;;10.40;99.90;;;10.40;99.24;97633.16;4950807;28;20628;-78
2023/03/10 01:14:04;;;;;;;18.98;11.82;;;10.40;99.90;;;10.37;99.73;97630.63;4947768;28;20230;-78
2023/03/10 01:16:31;;;;;;;31.85;15.38;;;10.40;99.90;;;10.37;99.88;97628.84;4947074;28;20297;-78
2023/03/10 01:18:59;;;;;;;23.85;11.63;;;10.40;99.90;;;10.33;100.00;97636.94;4934832;29;20273;-80
2023/03/10 01:21:30;;;;;;;17.52;10.13;;;10.30;99.90;;;10.29;100.00;97645.88;4947389;28;20246;-79
2023/03/10 01:23:59;;;;;;;20.23;6.38;;;10.30;99.90;;;10.17;100.00;97658.56;4948225;28;20245;-79
2023/03/10 01:26:26;;;;;;;30.30;21.20;;;10.20;99.90;;;10.08;100.00;97671.19;4944938;28;20246;-78
2023/03/10 01:28:53;;;;;;;20.35;15.93;;;10.10;99.90;;;10.05;100.00;97674.81;4945531;28;20274;-81
2023/03/10 01:31:21;;;;;;;82.65;77.80;;;10.00;99.90;;;9.92;100.00;97676.13;4951263;28;20234;-78
2023/03/10 01:33:48;;;;;;;48.90;45.35;;;9.90;99.90;;;9.86;100.00;97686.88;4948550;28;20882;-79
2023/03/10 01:36:21;;;;;;;35.85;32.45;;;9.80;99.90;;;9.82;100.00;97695.81;4951985;28;20703;-79
2023/03/10 01:38:48;;;;;;;29.15;26.38;;;9.80;99.90;;;9.78;100.00;97695.03;4949351;28;20234;-78
2023/03/10 01:41:16;;;;;;;15.20;13.68;;;9.80;99.90;;;9.76;100.00;97710.06;4948949;28;20258;-78
2023/03/10 01:43:47;;;;;;;22.85;16.50;;;9.70;99.90;;;9.72;100.00;97699.66;4963380;28;20241;-79
2023/03/10 01:46:38;;;;;;;15.85;5.43;;;9.70;99.90;;;9.69;100.00;97705.00;4945439;28;20270;-78
2023/03/10 01:49:32;;;;;;;12.20;3.80;;;9.70;99.90;;;9.71;100.00;97719.03;4952548;28;20234;-78
2023/03/10 01:52:16;;;;;;;17.35;5.85;;;9.70;99.90;;;9.70;100.00;97719.94;4941090;28;20309;-77
2023/03/10 01:54:48;;;;;;;21.92;7.38;;;9.70;99.90;;;9.71;100.00;97713.75;4961125;28;20238;-78
2023/03/10 01:57:19;;;;;;;17.88;7.88;;;9.70;99.90;;;9.73;100.00;97728.63;4956134;28;20292;-78
2023/03/10 01:59:47;;;;;;;18.63;6.45;;;9.70;99.90;;;9.67;100.00;97720.91;4948474;28;20233;-78
2023/03/10 02:02:15;;;;;;;13.70;4.00;;;9.60;99.90;;;9.68;100.00;97722.63;4954356;28;20257;-78
2023/03/10 02:04:47;;;;;;;23.65;6.32;;;9.60;99.90;;;9.73;100.00;97717.19;4951815;28;20249;-78
2023/03/10 02:07:20;;;;;;;22.73;5.97;;;9.70;99.90;;;9.69;100.00;97723.47;4950816;28;20667;-78
2023/03/10 02:09:49;;;;;;;14.73;4.13;;;9.70;99.90;;;9.69;100.00;97731.41;4949747;28;20292;-79
2023/03/10 02:12:17;;;;;;;17.38;4.38;;;9.60;99.90;;;9.68;100.00;97727.91;4948380;28;20308;-78
2023/03/10 02:14:46;;;;;;;28.98;7.03;;;9.70;99.90;;;9.73;100.00;97730.41;4954649;28;20257;-79
2023/03/10 02:17:17;;;;;;;12.98;3.60;;;9.70;99.90;;;9.72;100.00;97732.16;4967797;28;20238;-77
2023/03/10 02:19:44;;;;;;;23.48;12.65;;;9.70;99.90;;;9.75;100.00;97744.41;4951666;28;20237;-78
2023/03/10 02:22:14;;;;;;;14.80;10.35;;;9.70;99.90;;;9.76;100.00;97747.00;4947696;28;20662;-77
2023/03/10 02:24:56;;;;;;;22.92;5.45;;;9.70;99.90;;;9.78;100.00;97741.69;4950092;28;20249;-79
2023/03/10 02:27:25;;;;;;;13.07;4.13;;;9.70;99.90;;;9.79;100.00;97751.31;4947084;28;20667;-79
2023/03/10 02:30:15;;;;;;;16.60;4.63;;;9.80;99.90;;;9.80;100.00;97743.34;4948551;28;20332;-79
2023/03/10 02:32:48;;;;;;;16.98;4.47;;;9.70;99.90;;;9.75;100.00;97733.84;4955265;28;20268;-79
2023/03/10 02:35:15;;;;;;;14.13;3.55;;;9.70;99.90;;;9.76;100.00;97741.72;4944977;28;20237;-79
2023/03/10 02:37:43;;;;;;;17.00;4.05;;;9.70;99.90;;;9.78;100.00;97744.31;4952807;28;20296;-79
2023/03/10 02:40:28;;;;;;;12.43;3.08;;;9.70;99.90;;;9.78;100.00;97736.41;4954684;28;20265;-78
2023/03/10 02:42:55;;;;;;;15.77;3.80;;;9.80;99.90;;;9.80;100.00;97729.28;4953334;28;20653;-78
2023/03/10 02:45:29;;;;;;;16.88;4.07;;;9.80;99.90;;;9.83;100.00;97729.19;4950880;28;20263;-77
2023/03/10 02:47:57;;;;;;;20.73;4.82;;;9.80;99.90;;;9.82;100.00;97732.75;4951097;28;20239;-77
2023/03/10 02:50:27;;;;;;;16.17;3.85;;;9.80;99.90;;;9.82;100.00;97722.19;4953706;28;20246;-78
2023/03/10 02:53:11;;;;;;;13.25;3.10;;;9.80;99.90;;;9.84;100.00;97721.22;4947820;28;20297;-78
2023/03/10 02:55:39;;;;;;;15.30;3.63;;;9.80;99.90;;;9.84;100.00;97712.44;4951210;28;20273;-78
2023/03/10 02:58:06;;;;;;;11.45;2.80;;;9.80;99.90;;;9.87;100.00;97718.50;4953099;28;20241;-78
2023/03/10 03:00:40;;;;;;;12.07;2.80;;;9.80;99.90;;;9.89;100.00;97713.16;4952005;28;20309;-78
2023/03/10 03:03:08;;;;;;;18.42;4.25;;;9.80;99.90;;;9.89;100.00;97715.81;4946862;28;20242;-77
2023/03/10 03:05:36;;;;;;;12.93;3.05;;;9.90;99.90;;;9.85;100.00;97722.97;4950733;28;20237;-78
2023/03/10 03:08:05;;;;;;;13.75;3.25;;;9.80;99.90;;;9.80;100.00;97718.75;4951391;28;20258;-79
2023/03/10 03:10:33;;;;;;;16.98;4.07;;;9.80;99.90;;;9.81;100.00;97728.38;4954193;28;20262;-80
2023/03/10 03:13:01;;;;;;;18.77;4.35;;;9.80;99.90;;;9.82;100.00;97719.56;4950953;28;20237;-79
2023/03/10 03:15:28;;;;;;;13.07;3.13;;;9.80;99.90;;;9.77;100.00;97722.34;4953410;28;20312;-80
2023/03/10 03:17:57;;;;;;;20.85;4.95;;;9.80;99.90;;;9.86;100.00;97737.03;4953930;28;20270;-80
2023/03/10 03:20:29;;;;;;;12.13;2.83;;;9.80;99.90;;;9.81;100.00;97741.56;4951889;28;20233;-78
2023/03/10 03:22:57;;;;;;;18.10;4.57;;;9.80;99.90;;;9.72;100.00;97748.00;4948246;28;20303;-79
2023/03/10 03:25:27;;;;;;;13.85;3.30;;;9.70;99.90;;;9.73;100.00;97754.16;4951007;28;20238;-79
2023/03/10 03:27:56;;;;;;;19.65;4.65;;;9.70;99.90;;;9.59;100.00;97744.00;4953940;28;20320;-80
2023/03/10 03:30:26;;;;;;;11.75;2.75;;;9.60;99.90;;;9.55;100.00;97745.88;4966627;28;20281;-79
2023/03/10 03:32:54;;;;;;;15.35;3.88;;;9.50;99.90;;;9.51;100.00;97752.16;4951483;28;20263;-79
2023/03/10 03:35:28;;;;;;;14.27;3.20;;;9.50;99.90;;;9.56;100.00;97752.00;4948550;28;20288;-79
2023/03/10 03:37:56;;;;;;;11.13;2.58;;;9.50;99.90;;;9.75;100.00;97753.19;4948607;28;20229;-78
2023/03/10 03:40:34;;;;;;;11.90;2.72;;;9.70;99.90;;;9.74;100.00;97762.00;4951385;28;20316;-79
2023/03/10 03:43:02;;;;;;;17.48;4.07;;;9.70;99.90;;;9.69;100.00;97753.38;4952608;28;20237;-79
2023/03/10 03:45:31;;;;;;;15.13;3.55;;;9.60;99.90;;;9.86;100.00;97751.09;4951670;28;20264;-78
2023/03/10 03:47:58;;;;;;;19.02;4.50;;;9.80;99.90;;;9.75;100.00;97758.47;4951596;28;20260;-78
2023/03/10 03:50:26;;;;;;;10.90;2.55;;;9.80;99.90;;;9.47;100.00;97757.56;4952338;28;20261;-78
2023/03/10 03:52:53;;;;;;;20.25;4.90;;;9.50;99.90;;;9.32;100.00;97782.59;4945618;28;20318;-78
2023/03/10 03:55:21;;;;;;;15.07;3.55;;;9.30;99.90;;;9.27;100.00;97785.38;4949813;28;20261;-78
2023/03/10 03:57:48;;;;;;;17.92;4.40;;;9.30;99.90;;;9.27;100.00;97788.00;4949803;28;20261;-77
2023/03/10 04:00:22;;;;;;;11.02;2.67;;;9.30;99.90;;;9.19;100.00;97781.22;4954727;28;20246;-78
2023/03/10 04:02:49;;;;;;;14.13;3.42;;;9.20;99.90;;;9.12;100.00;97792.84;4950148;28;20281;-79
2023/03/10 04:05:16;;;;;;;14.45;3.33;;;9.10;99.90;;;9.12;100.00;97792.84;4950920;28;20249;-79
2023/03/10 04:07:45;;;;;;;19.80;4.60;;;9.10;99.90;;;9.08;100.00;97785.88;4948205;28;20234;-79
2023/03/10 04:10:17;;;;;;;15.88;3.60;;;9.10;99.90;;;9.08;100.00;97781.47;4948813;28;20324;-79
2023/03/10 04:12:44;;;;;;;13.82;3.42;;;9.10;99.90;;;9.14;100.00;97788.38;4961592;28;20298;-78
2023/03/10 04:15:11;;;;;;;18.40;4.25;;;9.10;99.90;;;9.26;100.00;97778.38;4951398;28;20244;-78
2023/03/10 04:17:39;;;;;;;8.88;2.20;;;9.20;99.90;;;9.27;100.00;97774.81;4950194;28;20241;-79
2023/03/10 04:20:08;;;;;;;14.93;3.35;;;9.20;99.90;;;9.25;100.00;97763.44;4946842;29;20392;-78
2023/03/10 04:22:36;;;;;;;14.75;3.22;;;9.20;99.90;;;9.29;100.00;97783.56;4952957;28;20352;-78
2023/03/10 04:25:04;;;;;;;17.63;4.13;;;9.30;99.90;;;9.39;100.00;97772.75;4951861;28;20319;-79
2023/03/10 04:27:32;;;;;;;13.40;3.10;;;9.30;99.90;;;9.37;100.00;97772.78;4952232;28;20320;-79
2023/03/10 04:29:59;;;;;;;14.73;3.97;;;9.30;99.90;;;9.61;100.00;97777.34;4950781;28;20269;-79
2023/03/10 04:32:26;;;;;;;12.60;2.90;;;9.50;99.90;;;9.61;100.00;97779.13;4948331;28;20682;-78
2023/03/10 04:34:53;;;;;;;21.45;4.70;;;9.50;99.90;;;9.57;100.00;97775.72;4951065;28;20241;-79
2023/03/10 04:37:21;;;;;;;13.75;3.17;;;9.50;99.90;;;9.50;100.00;97773.28;4951478;28;20296;-79
2023/03/10 04:39:48;;;;;;;13.45;3.22;;;9.50;99.90;;;9.41;100.00;97777.06;4945639;28;20319;-79
2023/03/10 04:42:15;;;;;;;11.70;2.88;;;9.40;99.90;;;9.33;100.00;97773.78;4950674;28;20238;-78
2023/03/10 04:44:42;;;;;;;15.15;3.50;;;9.30;99.90;;;9.28;100.00;97781.81;4952641;28;20280;-78
2023/03/10 04:47:09;;;;;;;15.30;3.53;;;9.30;99.90;;;9.38;100.00;97771.00;4950347;28;20257;-78
2023/03/10 04:49:37;;;;;;;15.63;3.50;;;9.30;99.90;;;9.63;100.00;97795.78;4949313;28;20277;-78
2023/03/10 04:52:05;;;;;;;10.23;2.38;;;9.50;99.90;;;9.51;100.00;97782.94;4951671;28;20238;-78
2023/03/10 04:54:32;;;;;;;10.98;2.65;;;9.50;99.90;;;9.52;100.00;97772.34;4951129;28;20249;-78
2023/03/10 04:56:59;;;;;;;11.80;2.92;;;9.50;99.90;;;9.58;100.00;97771.31;4940854;28;20273;-77
2023/03/10 04:59:26;;;;;;;13.27;3.17;;;9.50;99.90;;;9.52;100.00;97764.44;4944886;28;20242;-77
2023/03/10 05:01:53;;;;;;;16.50;3.88;;;9.50;99.90;;;9.54;100.00;97762.59;4949906;28;20269;-78
2023/03/10 05:04:20;;;;;;;11.85;2.75;;;9.50;99.90;;;9.46;100.00;97754.06;4949810;28;20233;-77
2023/03/10 05:06:52;;;;;;;15.25;3.55;;;9.50;99.90;;;9.53;100.00;97766.16;4951426;28;20265;-78
2023/03/10 05:09:19;;;;;;;15.27;3.47;;;9.50;99.90;;;9.69;100.00;97773.63;4952040;28;20238;-78
2023/03/10 05:11:46;;;;;;;13.32;3.17;;;9.60;99.90;;;9.67;100.00;97762.25;4947618;28;20265;-78
2023/03/10 05:14:14;;;;;;;11.20;2.50;;;9.60;99.90;;;9.68;100.00;97761.34;4951079;28;20265;-78
2023/03/10 05:16:42;;;;;;;15.27;3.45;;;9.60;99.90;;;9.67;100.00;97749.91;4953417;28;20245;-78
2023/03/10 05:19:09;;;;;;;10.60;2.60;;;9.70;99.90;;;9.66;100.00;97745.56;4945388;28;20253;-78
2023/03/10 05:21:36;;;;;;;9.50;2.20;;;9.60;99.90;;;9.57;100.00;97746.69;4945973;28;20246;-78
2023/03/10 05:24:03;;;;;;;13.48;3.17;;;9.60;99.90;;;9.34;100.00;97748.28;4948164;28;20233;-79
2023/03/10 05:26:30;;;;;;;15.30;3.58;;;9.40;99.90;;;9.21;100.00;97760.94;4944964;28;20301;-79
2023/03/10 05:29:00;;;;;;;11.43;2.65;;;9.20;99.90;;;9.11;100.00;97752.44;4950020;28;20261;-79
2023/03/10 05:31:27;;;;;;;12.55;2.97;;;9.10;99.90;;;8.96;100.00;97747.56;4953216;28;20278;-79
2023/03/10 05:33:55;;;;;;;15.48;3.40;;;9.00;99.90;;;8.88;100.00;97760.94;4946195;28;20292;-78
2023/03/10 05:36:23;;;;;;;9.80;2.25;;;8.90;99.90;;;8.80;100.00;97760.28;4937868;29;20234;-79
2023/03/10 05:38:50;;;;;;;13.38;3.28;;;8.80;99.90;;;8.83;100.00;97769.88;4953747;28;20300;-79
2023/03/10 05:41:17;;;;;;;16.05;3.63;;;8.80;99.90;;;8.80;100.00;97756.78;4949339;28;20292;-79
2023/03/10 05:43:44;;;;;;;11.23;2.72;;;8.80;99.90;;;8.82;100.00;97762.88;4951253;28;20293;-78
2023/03/10 05:46:11;;;;;;;14.38;3.33;;;8.80;99.90;;;8.86;100.00;97769.78;4948211;28;20245;-78
2023/03/10 05:48:39;;;;;;;10.57;2.50;;;8.80;99.90;;;8.88;100.00;97763.56;4950271;28;20336;-79
2023/03/10 05:51:09;;;;;;;17.55;3.80;;;8.90;99.90;;;8.90;100.00;97760.91;4956142;28;20233;-79
2023/03/10 05:53:38;;;;;;;16.23;3.70;;;8.90;99.90;;;8.93;100.00;97760.81;4945611;28;20242;-79
2023/03/10 05:56:12;;;;;;;12.80;2.88;;;8.90;99.90;;;8.97;100.00;97759.81;4953682;28;20297;-79
2023/03/10 05:58:39;;;;;;;15.40;3.50;;;8.90;99.90;;;8.97;100.00;97755.41;4948654;28;20340;-81
2023/03/10 06:01:08;;;;;;;15.63;3.70;;;8.90;99.90;;;8.99;100.00;97750.09;4951869;28;20366;-81
2023/03/10 06:03:36;;;;;;;12.68;2.88;;;9.00;99.90;;;8.99;100.00;97742.19;4952801;28;20237;-76
2023/03/10 06:06:05;;;;;;;11.13;2.60;;;9.00;99.90;;;9.03;100.00;97754.38;4954873;28;20241;-78
2023/03/10 06:08:33;;;;;;;16.50;3.65;;;9.00;99.90;;;9.14;100.00;97747.06;4953435;28;20269;-78
2023/03/10 06:11:00;;;;;;;8.77;2.03;;;9.10;99.90;;;9.12;100.00;97750.66;4969958;28;20246;-77
2023/03/10 06:13:28;;;;;;;13.05;3.00;;;9.10;99.90;;;9.15;100.00;97751.44;4944990;28;20261;-78
2023/03/10 06:15:59;;;;;;;10.85;2.55;;;9.10;99.90;;;9.11;100.00;97747.16;4947709;28;20246;-77
2023/03/10 06:18:27;;;;;;;12.98;2.97;;;9.10;99.90;;;9.10;100.00;97740.16;4950027;28;20244;-79
2023/03/10 06:20:55;;;;;;;9.70;2.42;;;9.10;99.90;;;9.08;100.00;97751.63;4956388;28;20261;-78
2023/03/10 06:23:23;;;;;;;11.80;2.85;;;9.10;99.90;;;9.05;100.00;97747.28;4949631;28;20233;-80
2023/03/10 06:26:05;;;;;;;12.35;3.00;;;9.00;99.90;;;9.08;100.00;97756.88;4953036;28;20237;-79
2023/03/10 06:28:36;;;;;;;14.05;3.15;;;9.00;99.90;;;9.10;100.00;97763.88;4951122;28;20237;-79
2023/03/10 06:31:15;;;;;;;8.20;1.95;;;9.10;99.90;;;9.05;100.00;97757.84;4952926;28;20257;-79
2023/03/10 06:33:43;;;;;;;17.10;3.90;;;9.10;99.90;;;9.15;100.00;97763.75;4946853;28;20312;-79
2023/03/10 06:36:11;;;;;;;12.75;3.00;;;9.10;99.90;;;9.15;100.00;97771.66;4950516;28;20262;-80
2023/03/10 06:38:39;;;;;;;12.35;2.78;;;9.10;99.90;;;9.20;100.00;97769.75;4952123;28;20262;-79
2023/03/10 06:41:06;;;;;;;14.18;3.17;;;9.20;99.90;;;9.18;100.00;97761.91;4967524;28;20238;-79
2023/03/10 06:43:35;;;;;;;11.95;2.67;;;9.20;99.90;;;9.09;100.00;97763.91;4953037;28;20241;-78
2023/03/10 06:46:04;;;;;;;11.13;2.53;;;9.10;99.90;;;9.10;100.00;97768.25;4948514;28;20678;-78
2023/03/10 06:48:33;;;;;;;13.93;3.13;;;9.10;99.90;;;9.15;100.00;97769.88;4947039;28;20707;-78
2023/03/10 06:51:00;;;;;;;19.13;4.38;;;9.10;99.90;;;9.13;100.00;97763.78;4956571;28;20253;-80
2023/03/10 06:53:27;;;;;;;9.98;2.30;;;9.10;99.90;;;9.16;100.00;97774.25;4947836;28;20352;-80
2023/03/10 06:56:17;;;;;;;11.25;2.67;;;9.10;99.90;;;9.44;100.00;97790.16;4955070;28;20238;-79
2023/03/10 06:58:45;;;;;;;12.98;3.00;;;9.30;99.90;;;9.61;100.00;97793.19;4950828;28;20264;-80
2023/03/10 07:01:27;;;;;;;7.07;1.63;;;9.50;99.90;;;9.79;100.00;97790.91;4957650;28;20604;-79
2023/03/10 07:03:56;;;;;;;11.27;2.60;;;9.60;99.90;;;9.85;100.00;97782.81;4955775;28;20237;-79
2023/03/10 07:06:24;;;;;;;15.55;3.42;;;9.80;99.90;;;9.89;100.00;97779.16;4953479;28;20706;-79
2023/03/10 07:08:53;;;;;;;15.45;3.65;;;9.90;99.90;;;9.78;100.00;97774.22;4956772;28;20288;-79
2023/03/10 07:11:22;;;;;;;14.20;3.17;;;9.80;99.90;;;9.80;100.00;97782.06;4955695;28;20246;-80
2023/03/10 07:13:50;;;;;;;14.70;3.50;;;9.70;99.90;;;9.85;100.00;97777.53;4953244;28;20226;-79
2023/03/10 07:16:17;;;;;;;17.40;3.85;;;9.80;99.90;;;9.84;100.00;97799.53;4954636;28;20286;-80
2023/03/10 07:18:44;;;;;;;14.93;3.50;;;9.80;99.90;;;9.75;100.00;97784.84;4955120;28;20289;-79
2023/03/10 07:21:16;;;;;;;13.93;3.08;;;9.70;99.90;;;9.74;100.00;97796.31;4958540;28;20242;-80
2023/03/10 07:23:44;;;;;;;15.70;3.72;;;9.70;99.90;;;9.77;100.00;97790.94;4955255;28;20336;-81
2023/03/10 07:26:14;;;;;;;9.07;2.03;;;9.70;99.90;;;9.83;100.00;97805.75;4953398;28;20715;-79
2023/03/10 07:28:41;;;;;;;15.35;3.42;;;9.80;99.90;;;9.83;100.00;97809.25;4946362;28;20242;-78
2023/03/10 07:31:12;;;;;;;12.35;2.90;;;9.80;99.90;;;9.83;100.00;97811.88;4958198;28;20240;-78
2023/03/10 07:33:39;;;;;;;13.98;3.10;;;9.80;99.90;;;9.82;100.00;97807.50;4961612;28;20242;-79
2023/03/10 07:36:10;;;;;;;10.38;2.30;;;9.80;99.90;;;9.75;100.00;97807.75;4956631;28;20252;-79
2023/03/10 07:38:37;;;;;;;20.35;4.57;;;9.70;99.90;;;9.67;100.00;97786.00;4955830;28;20241;-80
2023/03/10 07:41:16;;;;;;;17.98;4.03;;;9.60;99.90;;;9.63;100.00;97812.47;4957608;28;20240;-79
2023/03/10 07:43:44;;;;;;;20.00;4.65;;;9.60;99.90;;;9.52;100.00;97821.59;4954302;28;20617;-79
2023/03/10 07:46:14;;;;;;;10.48;2.45;;;9.50;99.90;;;9.39;100.00;97834.28;4946768;28;20242;-80
2023/03/10 07:48:41;;;;;;;15.60;3.55;;;9.40;99.90;;;9.35;100.00;97852.84;4953618;28;20268;-80
2023/03/10 07:51:08;;;;;;;10.63;2.58;;;9.20;99.90;;;9.20;100.00;97865.53;4937016;29;20230;-79
2023/03/10 07:53:35;;;;;;;8.75;2.15;;;9.20;99.90;;;9.18;100.00;97877.91;4951363;28;20225;-79
2023/03/10 07:56:06;;;;;;;14.13;3.20;;;9.20;99.90;;;9.18;100.00;97882.31;4940917;28;20281;-79
2023/03/10 07:58:33;;;;;;;13.38;3.15;;;9.10;99.90;;;9.15;100.00;97880.63;4953158;28;20361;-79
2023/03/10 08:01:02;;;;;;;16.05;3.63;;;9.10;99.90;;;9.19;100.00;97849.75;4952954;28;20236;-80
2023/03/10 08:03:29;;;;;;;11.20;2.75;;;9.20;99.90;;;9.14;100.00;97833.22;4951957;28;20365;-80
2023/03/10 08:05:56;;;;;;;12.35;3.10;;;9.10;99.90;;;8.98;100.00;97823.03;4956903;28;20252;-81
2023/03/10 08:08:23;;;;;;;7.28;1.85;;;9.00;99.90;;;9.03;100.00;97815.00;4952404;28;20292;-81
2023/03/10 08:11:04;;;;;;;9.38;2.33;;;9.00;99.90;;;8.97;100.00;97823.94;4956445;28;20248;-80
2023/03/10 08:13:32;;;;;;;19.58;4.95;;;9.00;99.90;;;8.90;100.00;97817.09;4962191;28;20226;-81
2023/03/10 08:16:01;;;;;;;14.02;3.38;;;8.90;99.90;;;8.84;100.00;97814.63;4953841;28;20625;-80
2023/03/10 08:18:29;;;;;;;13.80;3.65;;;8.80;99.90;;;8.93;100.00;97829.34;4956534;28;20309;-80
2023/03/10 08:20:57;;;;;;;21.30;4.93;;;8.90;99.90;;;8.90;100.00;97832.91;4954976;28;20702;-81
2023/03/10 08:23:25;;;;;;;21.42;4.82;;;8.90;99.90;;;8.90;100.00;97838.19;4951433;28;20321;-81
2023/03/10 08:25:52;;;;;;;17.30;4.10;;;8.90;99.90;;;8.94;100.00;97834.56;4948207;28;20242;-83
2023/03/10 08:28:19;;;;;;;18.25;4.15;;;8.90;99.90;;;9.03;100.00;97825.56;4948984;28;20273;-90
2023/03/10 08:30:47;;;;;;;30.80;6.65;;;9.00;99.90;;;9.08;100.00;97825.44;4949674;28;20232;-86
2023/03/10 08:33:31;;;;;;;18.55;4.25;;;9.00;99.90;;;9.15;100.00;97842.84;4946536;28;20226;-79
2023/03/10 08:36:17;;;;;;;25.17;5.72;;;9.10;99.90;;;9.21;100.00;97833.00;4942976;28;20244;-80
2023/03/10 08:38:45;;;;;;;19.23;4.63;;;9.20;99.90;;;9.19;100.00;97844.50;4951398;28;20245;-81
2023/03/10 08:41:18;;;;;;;16.08;3.85;;;9.20;99.90;;;9.12;100.00;97838.53;4951666;28;20241;-80
2023/03/10 08:43:47;;;;;;;23.75;5.28;;;9.10;99.90;;;9.16;100.00;97834.91;4948047;28;20229;-80
2023/03/10 08:46:17;;;;;;;26.05;5.70;;;9.10;99.90;;;9.18;100.00;97846.25;4950848;28;20238;-80
2023/03/10 08:48:45;;;;;;;16.98;3.97;;;9.10;99.90;;;9.18;100.00;97841.00;4950106;28;20236;-83
2023/03/10 08:51:13;;;;;;;31.88;7.00;;;9.20;99.90;;;9.15;100.00;97832.31;4951297;28;20261;-86
2023/03/10 08:53:45;;;;;;;13.63;3.40;;;10.00;99.90;;;9.35;100.00;97843.16;4950691;28;20308;-84
2023/03/10 08:56:14;;;;;;;15.30;3.45;;;9.30;99.90;;;9.61;100.00;97868.81;4951266;28;20240;-85
2023/03/10 08:58:42;;;;;;;13.25;3.58;;;9.50;99.90;;;9.73;100.00;97871.13;4950721;28;20233;-82
2023/03/10 09:01:12;;;;;;;19.67;6.43;;;9.60;99.90;;;9.85;100.00;97883.97;4951785;28;20291;-80
2023/03/10 09:03:43;;;;;;;11.13;2.83;;;9.70;99.90;;;9.84;100.00;97873.44;4955710;28;20234;-80
2023/03/10 09:06:11;;;;;;;13.57;3.33;;;9.80;99.90;;;9.72;100.00;97856.19;4949432;28;20304;-84
2023/03/10 09:08:39;;;;;;;19.42;4.35;;;9.70;99.90;;;9.79;100.00;97864.78;4953548;28;20254;-83
2023/03/10 09:11:09;;;;;;;17.33;4.05;;;10.20;99.90;;;9.82;100.00;97877.91;4947800;28;20719;-87
2023/03/10 09:13:37;;;;;;;13.93;3.10;;;9.80;99.90;;;9.77;100.00;97875.41;4951698;28;20237;-84
2023/03/10 09:16:04;;;;;;;12.02;2.85;;;9.70;99.90;;;9.87;100.00;97892.69;4953045;28;20616;-82
2023/03/10 09:18:32;;;;;;;25.73;5.82;;;9.80;99.90;;;9.91;100.00;97890.84;4951424;28;20297;-86
2023/03/10 09:20:59;;;;;;;19.70;4.03;;;9.90;99.90;;;9.85;100.00;97899.78;4953782;28;20237;-82
2023/03/10 09:23:27;;;;;;;19.33;4.30;;;9.80;99.90;;;9.76;100.00;97893.91;4955325;28;20244;-80
2023/03/10 09:25:54;;;;;;;15.82;3.47;;;9.70;99.90;;;9.74;100.00;97895.72;4947532;28;20690;-81
2023/03/10 09:28:22;;;;;;;15.43;3.60;;;9.70;99.90;;;9.79;100.00;97899.09;4945042;28;20250;-81
2023/03/10 09:30:50;;;;;;;14.10;3.00;;;9.70;99.90;;;9.82;100.00;97910.44;4949403;28;20241;-81
2023/03/10 09:33:19;;;;;;;29.00;6.03;;;9.80;99.90;;;9.97;100.00;97905.63;4950082;28;20241;-81
2023/03/10 09:35:48;;;;;;;18.52;14.30;;;9.90;99.90;;;10.09;100.00;97900.00;4950265;28;20233;-80
2023/03/10 09:38:33;;;;;;;25.45;15.15;;;10.00;99.90;;;10.19;100.00;97875.91;4955059;28;20242;-81
2023/03/10 09:41:12;;;;;;;24.98;16.13;;;10.10;99.90;;;10.19;100.00;97856.56;4953016;28;20240;-80
2023/03/10 09:43:49;;;;;;;27.98;25.40;;;10.20;99.90;;;10.19;100.00;97857.41;4951632;28;20265;-83
2023/03/10 09:46:34;;;;;;;53.28;49.80;;;10.20;99.90;;;10.22;100.00;97859.13;4953978;28;20265;-82
2023/03/10 09:49:17;;;;;;;31.85;24.13;;;10.20;99.90;;;10.25;100.00;97848.47;4967873;28;20237;-87
2023/03/10 09:51:48;;;;;;;16.20;6.28;;;10.20;99.90;;;10.27;100.00;97836.09;4952233;28;20261;-84
2023/03/10 09:54:30;;;;;;;22.25;10.00;;;10.20;99.90;;;10.31;100.00;97844.78;4948883;28;20260;-82
2023/03/10 09:57:00;;;;;;;22.67;14.77;;;10.30;99.90;;;10.23;100.00;97845.03;4960574;28;20261;-82
2023/03/10 09:59:37;;;;;;;39.38;22.30;;;10.20;99.90;;;10.22;100.00;97841.50;4957334;28;20237;-84
2023/03/10 10:02:19;;;;;;;24.10;20.60;;;10.20;99.90;;;10.23;100.00;97845.03;4958518;28;20233;-82
2023/03/10 10:04:52;;;;;;;144.38;36.60;;;10.20;99.90;;;10.34;100.00;97852.59;4964133;23;20230;-77
2023/03/10 10:07:24;;;;;;;43.80;31.60;;;10.30;99.90;;;10.34;100.00;97844.69;4939287;28;20726;-78
2023/03/10 10:10:03;;;;;;;44.13;40.10;;;10.30;99.90;;;10.25;100.00;97845.84;4950291;28;20246;-76
2023/03/10 10:12:31;;;;;;;31.58;28.42;;;10.30;99.90;;;10.23;100.00;97853.81;4947134;28;20256;-76
2023/03/10 10:15:14;;;;;;;66.35;38.50;;;10.20;99.90;;;10.36;100.00;97862.22;4943501;28;20268;-78
2023/03/10 10:18:07;;;;;;;21.70;5.00;;;10.30;99.90;;;10.40;100.00;97847.13;4945968;28;20284;-77
2023/03/10 10:20:59;;;;;;;15.45;3.88;;;10.30;99.90;;;10.37;100.00;97844.59;4960845;28;20245;-76
2023/03/10 10:23:48;;;;;;;13.20;3.10;;;10.30;99.90;;;10.34;100.00;97849.97;4947563;28;20241;-77
2023/03/10 10:26:23;;;;;;;13.57;3.35;;;10.30;99.90;;;10.37;100.00;97857.81;4948316;29;20241;-77
2023/03/10 10:29:05;;;;;;;10.82;2.53;;;10.30;99.90;;;10.36;100.00;97872.78;4949975;28;20229;-76